Time;durP1;ratioP1;P1;durP2;ratioP2;P2;SDS_P1;SDS_P2;PMS_P1;PMS_P2;Temp;Humidity;BMP_temperature;BMP_pressure;BME280_temperature;BME280_humidity;BME280_pressure;Samples;Min_cycle;Max_cycle;Signal;HPM_P1;HPM_P2
2020/12/24 00:00:44;;;;;;;18.20;12.68;;;;;;;9.15;100.00;99757.84;5028315;28;20140;-58
2020/12/24 00:03:10;;;;;;;18.55;11.68;;;;;;;9.23;100.00;99760.81;5022839;28;20604;-60
2020/12/24 00:05:38;;;;;;;19.00;12.90;;;;;;;9.26;100.00;99762.38;5029201;28;20046;-59
2020/12/24 00:08:04;;;;;;;18.60;12.90;;;;;;;9.25;100.00;99766.78;4992349;28;20077;-59
2020/12/24 00:10:31;;;;;;;19.00;13.13;;;;;;;9.28;100.00;99769.22;5021601;28;20540;-57
2020/12/24 00:12:58;;;;;;;20.38;13.10;;;;;;;9.30;100.00;99766.47;5015732;28;20081;-59
2020/12/24 00:15:25;;;;;;;19.83;11.50;;;;;;;9.36;100.00;99766.03;4996610;28;20054;-59
2020/12/24 00:17:52;;;;;;;16.73;12.00;;;;;;;9.34;100.00;99771.41;5026750;28;20106;-62
2020/12/24 00:20:18;;;;;;;15.93;10.73;;;;;;;9.43;100.00;99758.59;5020513;28;20059;-57
2020/12/24 00:22:45;;;;;;;15.88;9.98;;;;;;;9.42;100.00;99763.03;5027409;28;20538;-59
2020/12/24 00:25:12;;;;;;;14.10;10.05;;;;;;;9.41;100.00;99766.59;5021621;28;20053;-59
2020/12/24 00:27:38;;;;;;;18.90;10.02;;;;;;;9.45;100.00;99756.69;5013624;28;20088;-61
2020/12/24 00:30:05;;;;;;;15.48;10.23;;;;;;;9.45;100.00;99757.53;5021293;28;20045;-57
2020/12/24 00:32:33;;;;;;;19.00;12.20;;;;;;;9.36;100.00;99750.28;5017210;28;20053;-56
2020/12/24 00:35:00;;;;;;;13.30;10.27;;;;;;;9.37;100.00;99762.50;5024153;28;20099;-58
2020/12/24 00:37:26;;;;;;;15.35;10.40;;;;;;;9.43;100.00;99767.31;5009149;28;20045;-57
2020/12/24 00:39:53;;;;;;;12.23;9.48;;;;;;;9.38;100.00;99762.38;5018637;28;20417;-57
2020/12/24 00:42:20;;;;;;;13.48;9.50;;;;;;;9.37;100.00;99757.25;5019429;28;20061;-58
2020/12/24 00:44:46;;;;;;;10.60;8.10;;;;;;;9.36;100.00;99761.63;5022246;28;20061;-59
2020/12/24 00:47:13;;;;;;;12.65;8.93;;;;;;;9.33;100.00;99759.22;5029001;28;20038;-58
2020/12/24 00:49:40;;;;;;;9.38;7.85;;;;;;;9.49;100.00;99766.91;5023323;28;20700;-56
2020/12/24 00:52:06;;;;;;;10.63;8.18;;;;;;;9.52;100.00;99763.22;5014227;28;20061;-60
2020/12/24 00:54:34;;;;;;;10.68;7.50;;;;;;;9.53;100.00;99755.22;5020141;28;20837;-59
2020/12/24 00:57:00;;;;;;;9.68;7.00;;;;;;;9.47;100.00;99762.72;5026461;28;20123;-57
2020/12/24 00:59:27;;;;;;;8.55;6.78;;;;;;;9.45;100.00;99760.16;5026755;28;20053;-60
2020/12/24 01:01:54;;;;;;;6.78;5.72;;;;;;;9.52;100.00;99755.34;5021758;28;20124;-60
2020/12/24 01:04:20;;;;;;;6.63;5.30;;;;;;;9.49;100.00;99752.91;4994845;28;20100;-57
2020/12/24 01:06:47;;;;;;;6.47;5.55;;;;;;;9.37;100.00;99746.72;5024285;28;20046;-58
2020/12/24 01:09:14;;;;;;;7.22;4.93;;;;;;;9.34;100.00;99760.06;5021587;28;20053;-57
2020/12/24 01:11:41;;;;;;;7.53;5.43;;;;;;;9.33;100.00;99753.97;5016141;28;20054;-54
2020/12/24 01:14:07;;;;;;;6.68;5.15;;;;;;;9.33;100.00;99751.34;5021131;28;20057;-58
2020/12/24 01:16:34;;;;;;;5.88;4.72;;;;;;;9.30;100.00;99758.59;5019287;28;20053;-55
2020/12/24 01:19:00;;;;;;;6.50;4.32;;;;;;;9.26;100.00;99759.72;5021376;28;20148;-57
2020/12/24 01:21:28;;;;;;;5.70;4.93;;;;;;;9.14;100.00;99764.03;5021982;28;20634;-57
2020/12/24 01:23:54;;;;;;;5.60;3.38;;;;;;;9.20;100.00;99768.03;4999609;28;20056;-56
2020/12/24 01:26:21;;;;;;;4.80;3.90;;;;;;;9.12;100.00;99765.91;5018595;28;20057;-54
2020/12/24 01:28:48;;;;;;;4.55;3.50;;;;;;;9.22;100.00;99753.84;5024706;28;20064;-62
2020/12/24 01:31:15;;;;;;;5.18;3.53;;;;;;;9.21;100.00;99762.66;5019358;28;20457;-58
2020/12/24 01:33:41;;;;;;;5.93;3.40;;;;;;;9.29;100.00;99755.13;5022752;28;20128;-58
2020/12/24 01:36:08;;;;;;;5.85;3.45;;;;;;;9.34;100.00;99750.41;5020353;28;20054;-58
2020/12/24 01:38:39;;;;;;;5.30;3.63;;;;;;;9.36;100.00;99735.34;5016184;28;20068;-58
2020/12/24 01:41:06;;;;;;;4.50;3.47;;;;;;;9.30;100.00;99730.53;5022325;28;20081;-57
2020/12/24 01:43:33;;;;;;;7.43;3.35;;;;;;;9.21;100.00;99728.53;5004189;28;20048;-58
2020/12/24 01:46:00;;;;;;;4.35;2.85;;;;;;;9.15;100.00;99720.25;5026031;28;20053;-57
2020/12/24 01:48:27;;;;;;;4.20;3.00;;;;;;;9.04;100.00;99734.06;5023850;28;20060;-61
2020/12/24 01:50:53;;;;;;;5.13;3.58;;;;;;;8.96;100.00;99741.59;5023366;28;20060;-58
2020/12/24 01:53:22;;;;;;;4.15;3.30;;;;;;;8.99;100.00;99720.41;5016797;28;20061;-55
2020/12/24 01:55:50;;;;;;;6.05;3.15;;;;;;;8.85;100.00;99723.94;5020832;28;20081;-60
2020/12/24 01:58:17;;;;;;;5.13;3.78;;;;;;;8.67;100.00;99725.16;5019260;28;20068;-56
2020/12/24 02:00:47;;;;;;;5.00;3.38;;;;;;;8.76;100.00;99719.31;5017845;28;20471;-61
2020/12/24 02:03:14;;;;;;;10.05;3.85;;;;;;;8.61;100.00;99705.44;5025237;28;20140;-57
2020/12/24 02:05:41;;;;;;;8.13;3.40;;;;;;;8.52;100.00;99706.88;5018360;23;20060;-56
2020/12/24 02:08:08;;;;;;;5.25;3.35;;;;;;;8.60;100.00;99701.09;5016871;28;20050;-51
2020/12/24 02:10:35;;;;;;;3.75;3.35;;;;;;;8.65;100.00;99699.03;5009820;28;20223;-54
2020/12/24 02:13:03;;;;;;;4.57;3.28;;;;;;;8.51;100.00;99697.31;5017792;28;20513;-54
2020/12/24 02:15:30;;;;;;;7.00;3.83;;;;;;;8.39;100.00;99694.66;5012539;28;20447;-54
2020/12/24 02:17:57;;;;;;;6.50;3.78;;;;;;;8.27;100.00;99683.97;5000943;28;20060;-56
2020/12/24 02:20:23;;;;;;;5.38;4.28;;;;;;;8.21;100.00;99697.47;5012166;28;20045;-54
2020/12/24 02:22:50;;;;;;;6.72;3.95;;;;;;;8.17;100.00;99680.25;4990833;28;20060;-53
2020/12/24 02:25:17;;;;;;;5.90;4.90;;;;;;;8.10;100.00;99681.56;4991457;28;20053;-54
2020/12/24 02:27:43;;;;;;;6.32;4.47;;;;;;;8.07;100.00;99685.25;4980572;28;20050;-55
2020/12/24 02:30:10;;;;;;;8.73;4.68;;;;;;;8.03;100.00;99685.53;5007073;28;20073;-56
2020/12/24 02:32:37;;;;;;;8.32;4.95;;;;;;;8.16;100.00;99678.59;4997593;28;20053;-53
2020/12/24 02:35:04;;;;;;;6.15;4.25;;;;;;;8.25;100.00;99680.63;5011642;28;20050;-55
2020/12/24 02:37:32;;;;;;;6.47;4.68;;;;;;;8.23;100.00;99676.41;4994743;28;20533;-54
2020/12/24 02:39:58;;;;;;;5.72;4.50;;;;;;;8.21;100.00;99673.88;4994520;28;20069;-56
2020/12/24 02:42:25;;;;;;;5.43;4.53;;;;;;;8.15;100.00;99670.78;5002205;28;20057;-55
2020/12/24 02:44:52;;;;;;;6.13;4.72;;;;;;;8.30;100.00;99677.69;4999872;28;20411;-57
2020/12/24 02:47:18;;;;;;;15.65;7.80;;;;;;;8.31;100.00;99666.25;5010856;28;20056;-55
2020/12/24 02:49:57;;;;;;;9.23;5.57;;;;;;;8.35;100.00;99668.59;5011051;28;20120;-54
2020/12/24 02:52:24;;;;;;;6.10;4.55;;;;;;;8.51;100.00;99662.34;4986430;28;20042;-56
2020/12/24 02:54:51;;;;;;;6.43;5.15;;;;;;;8.64;100.00;99657.97;5007193;28;20077;-54
2020/12/24 02:57:18;;;;;;;8.25;5.22;;;;;;;8.68;100.00;99658.63;4996569;28;20054;-52
2020/12/24 03:00:06;;;;;;;6.07;5.10;;;;;;;8.72;100.00;99660.94;5002382;28;20058;-57
2020/12/24 03:02:33;;;;;;;8.65;4.40;;;;;;;8.79;100.00;99666.63;5005126;28;20173;-52
2020/12/24 03:05:00;;;;;;;8.30;5.05;;;;;;;8.84;100.00;99657.50;4973279;28;20046;-57
2020/12/24 03:07:27;;;;;;;6.88;4.93;;;;;;;8.83;100.00;99660.25;5007710;28;20058;-57
2020/12/24 03:09:54;;;;;;;6.30;4.70;;;;;;;8.84;100.00;99660.13;5011529;28;20058;-56
2020/12/24 03:12:24;;;;;;;5.18;4.28;;;;;;;8.93;100.00;99642.94;5008316;28;20080;-57
2020/12/24 03:14:51;;;;;;;6.05;4.38;;;;;;;8.91;100.00;99650.03;5004436;28;20054;-56
2020/12/24 03:17:19;;;;;;;7.03;3.75;;;;;;;8.99;100.00;99641.66;5007164;28;20158;-54
2020/12/24 03:19:46;;;;;;;6.25;4.15;;;;;;;9.01;100.00;99631.91;4994364;28;20065;-55
2020/12/24 03:22:13;;;;;;;5.22;3.90;;;;;;;8.94;100.00;99626.22;5007543;28;20050;-52
2020/12/24 03:24:40;;;;;;;6.15;4.47;;;;;;;8.82;100.00;99622.63;5007408;28;20062;-57
2020/12/24 03:27:06;;;;;;;4.75;3.92;;;;;;;8.74;100.00;99624.13;5010564;28;20054;-56
2020/12/24 03:29:33;;;;;;;5.93;3.53;;;;;;;8.77;100.00;99622.09;5002807;28;20046;-54
2020/12/24 03:32:00;;;;;;;8.95;3.90;;;;;;;8.76;100.00;99612.56;5006018;28;20050;-54
2020/12/24 03:34:27;;;;;;;6.30;4.13;;;;;;;8.74;100.00;99614.47;5004955;28;20088;-56
2020/12/24 03:36:53;;;;;;;6.60;4.28;;;;;;;8.77;100.00;99606.38;4999783;28;20058;-55
2020/12/24 03:39:20;;;;;;;6.30;4.10;;;;;;;8.82;100.00;99606.06;4997493;28;20109;-51
2020/12/24 03:41:47;;;;;;;5.43;3.95;;;;;;;8.81;100.00;99607.00;4994163;28;20061;-53
2020/12/24 03:44:14;;;;;;;7.68;3.88;;;;;;;8.92;100.00;99591.38;5001226;28;20670;-56
2020/12/24 03:46:40;;;;;;;6.20;3.60;;;;;;;8.85;100.00;99605.84;5006373;28;20148;-57
2020/12/24 03:49:07;;;;;;;5.97;3.30;;;;;;;8.86;100.00;99610.16;4982628;28;20054;-56
2020/12/24 03:51:34;;;;;;;9.90;4.28;;;;;;;8.86;100.00;99631.97;5004802;28;20542;-55
2020/12/24 03:54:01;;;;;;;7.78;3.03;;;;;;;8.93;100.00;99621.94;4997623;28;20161;-55
2020/12/24 03:56:27;;;;;;;3.28;2.38;;;;;;;8.96;100.00;99615.59;5007781;28;20111;-53
2020/12/24 03:58:54;;;;;;;5.15;2.50;;;;;;;8.88;100.00;99601.25;5001073;28;20054;-55
2020/12/24 04:01:21;;;;;;;4.38;2.08;;;;;;;8.81;100.00;99599.97;4988196;28;20121;-53
2020/12/24 04:03:47;;;;;;;3.35;1.67;;;;;;;8.82;100.00;99600.81;4997533;28;20041;-55
2020/12/24 04:06:14;;;;;;;3.85;1.55;;;;;;;8.72;100.00;99597.97;5002830;28;20054;-52
2020/12/24 04:08:41;;;;;;;1.80;1.38;;;;;;;8.74;100.00;99601.34;5004502;28;20133;-54
2020/12/24 04:11:07;;;;;;;2.10;1.30;;;;;;;8.78;100.00;99601.94;5007449;28;20058;-53
2020/12/24 04:13:34;;;;;;;2.92;1.40;;;;;;;8.80;100.00;99608.78;5003480;28;20077;-55
2020/12/24 04:16:01;;;;;;;5.13;1.48;;;;;;;8.73;100.00;99604.06;4991389;28;20061;-55
2020/12/24 04:18:28;;;;;;;4.35;1.35;;;;;;;8.76;100.00;99593.34;5001681;28;20060;-57
2020/12/24 04:20:57;;;;;;;4.72;1.92;;;;;;;8.79;100.00;99594.00;4995949;28;20511;-52
2020/12/24 04:23:24;;;;;;;4.13;1.50;;;;;;;8.70;100.00;99596.41;4996403;28;20141;-55
2020/12/24 04:25:51;;;;;;;2.95;1.50;;;;;;;8.76;100.00;99583.69;5011342;28;20057;-50
2020/12/24 04:28:17;;;;;;;2.85;1.73;;;;;;;8.63;100.00;99582.84;5003984;28;20065;-55
2020/12/24 04:30:44;;;;;;;4.35;1.40;;;;;;;8.62;100.00;99574.13;5002289;28;20046;-54
2020/12/24 04:33:12;;;;;;;7.82;1.90;;;;;;;8.63;100.00;99561.84;5005263;28;20066;-51
2020/12/24 04:35:39;;;;;;;1.67;1.38;;;;;;;8.55;100.00;99572.03;4997478;28;20064;-51
2020/12/24 04:38:05;;;;;;;3.88;1.95;;;;;;;8.46;100.00;99567.41;4986045;28;20058;-53
2020/12/24 04:40:33;;;;;;;5.72;1.92;;;;;;;8.31;100.00;99572.69;4977051;28;20062;-55
2020/12/24 04:43:02;;;;;;;4.97;2.05;;;;;;;8.29;100.00;99576.38;5006419;28;20280;-52
2020/12/24 04:45:31;;;;;;;5.68;1.70;;;;;;;8.20;100.00;99571.75;4994446;28;20112;-54
2020/12/24 04:47:58;;;;;;;4.38;1.63;;;;;;;8.08;100.00;99574.22;5005566;28;20061;-56
2020/12/24 04:50:26;;;;;;;8.70;2.13;;;;;;;8.02;100.00;99572.00;5004260;28;20419;-55
2020/12/24 04:52:57;;;;;;;4.82;1.90;;;;;;;8.01;100.00;99578.16;5008098;28;20548;-51
2020/12/24 04:55:24;;;;;;;8.82;1.92;;;;;;;7.91;100.00;99584.09;4973366;28;20157;-54
2020/12/24 04:57:51;;;;;;;7.15;2.60;;;;;;;8.08;100.00;99583.84;5005042;28;20147;-53
2020/12/24 05:00:18;;;;;;;6.97;1.77;;;;;;;8.18;100.00;99581.47;5008564;28;20052;-56
2020/12/24 05:02:46;;;;;;;2.65;1.65;;;;;;;8.30;100.00;99584.13;5008816;28;20055;-57
2020/12/24 05:05:13;;;;;;;5.28;1.40;;;;;;;8.33;100.00;99586.56;4980946;28;20050;-54
2020/12/24 05:07:42;;;;;;;7.03;2.65;;;;;;;8.35;100.00;99600.41;5005002;28;20492;-53
2020/12/24 05:10:15;;;;;;;4.00;1.10;;;;;;;8.28;100.00;99598.28;5004767;28;20065;-54
2020/12/24 05:12:41;;;;;;;4.57;1.20;;;;;;;8.25;100.00;99598.50;5008477;28;20142;-51
2020/12/24 05:15:25;;;;;;;3.58;1.17;;;;;;;8.31;100.00;99588.44;5006329;28;20057;-55
2020/12/24 05:17:51;;;;;;;3.33;1.10;;;;;;;8.30;100.00;99599.03;5007426;28;20108;-55
2020/12/24 05:20:18;;;;;;;2.78;1.20;;;;;;;8.31;100.00;99593.66;5006824;28;20050;-55
2020/12/24 05:22:45;;;;;;;7.88;1.10;;;;;;;8.35;99.15;99608.25;4990853;28;20530;-56
2020/12/24 05:25:19;;;;;;;2.00;1.02;;;;;;;8.50;97.54;99592.47;4994925;28;20069;-56
2020/12/24 05:27:56;;;;;;;4.15;1.50;;;;;;;8.41;97.09;99600.97;4992335;28;20050;-58
2020/12/24 05:30:26;;;;;;;6.25;1.30;;;;;;;8.48;97.33;99604.88;5007543;28;20422;-53
2020/12/24 05:32:53;;;;;;;4.97;1.83;;;;;;;8.48;96.82;99604.88;5007234;28;20057;-56
2020/12/24 05:35:24;;;;;;;4.05;1.02;;;;;;;8.50;97.50;99606.44;5007339;28;20494;-52
2020/12/24 05:37:52;;;;;;;4.32;1.38;;;;;;;8.59;97.15;99610.22;4974080;28;20050;-55
2020/12/24 05:40:26;;;;;;;8.32;1.95;;;;;;;8.63;97.51;99604.66;5000568;28;20070;-57
2020/12/24 05:43:01;;;;;;;5.57;1.30;;;;;;;8.58;97.93;99596.28;5007285;28;20078;-53
2020/12/24 05:45:29;;;;;;;4.35;1.50;;;;;;;8.56;97.54;99603.41;5004573;28;20049;-52
2020/12/24 05:48:12;;;;;;;5.40;1.40;;;;;;;8.47;97.70;99595.34;4994868;28;20047;-57
2020/12/24 05:50:39;;;;;;;6.72;2.10;;;;;;;8.38;97.35;99602.03;5003504;28;20050;-52
2020/12/24 05:53:14;;;;;;;6.25;1.23;;;;;;;8.35;96.82;99595.16;4985293;28;20108;-55
2020/12/24 05:55:42;;;;;;;3.70;1.42;;;;;;;8.35;96.91;99599.56;5006118;28;20042;-56
2020/12/24 05:58:09;;;;;;;2.97;1.05;;;;;;;8.29;96.23;99605.22;5001011;28;20062;-54
2020/12/24 06:00:40;;;;;;;4.45;1.30;;;;;;;8.33;96.14;99602.28;5005827;28;20061;-57
2020/12/24 06:03:18;;;;;;;5.30;1.45;;;;;;;8.29;94.87;99595.56;5002348;28;20427;-58
2020/12/24 06:06:01;;;;;;;5.53;1.45;;;;;;;8.24;95.16;99591.53;4979496;28;20090;-57
2020/12/24 06:08:32;;;;;;;9.70;1.77;;;;;;;8.20;93.68;99590.09;4999397;28;20160;-52
2020/12/24 06:11:06;;;;;;;7.93;1.83;;;;;;;8.22;94.11;99593.44;5006632;28;20153;-55
2020/12/24 06:13:37;;;;;;;3.95;1.10;;;;;;;8.25;93.43;99593.25;5002852;28;20075;-57
2020/12/24 06:16:12;;;;;;;5.25;1.30;;;;;;;8.18;93.77;99594.59;5001577;28;20050;-55
2020/12/24 06:18:43;;;;;;;9.07;1.48;;;;;;;8.19;93.33;99593.63;5002164;28;20061;-54
2020/12/24 06:21:17;;;;;;;8.10;1.73;;;;;;;8.04;93.60;99591.06;5006103;28;20080;-54
2020/12/24 06:23:47;;;;;;;6.43;1.27;;;;;;;8.05;93.07;99600.63;4993323;28;20674;-57
2020/12/24 06:26:19;;;;;;;3.75;1.48;;;;;;;8.03;93.21;99594.63;4988869;28;20092;-54
2020/12/24 06:28:48;;;;;;;8.75;1.83;;;;;;;7.93;93.31;99598.81;5000312;28;20146;-53
2020/12/24 06:31:17;;;;;;;6.97;1.42;;;;;;;7.81;93.69;99605.66;4971790;28;20146;-53
2020/12/24 06:33:44;;;;;;;7.88;1.58;;;;;;;7.77;94.50;99598.09;4984421;28;20595;-57
2020/12/24 06:36:30;;;;;;;7.60;1.48;;;;;;;7.77;92.95;99598.09;5004931;28;20058;-56
2020/12/24 06:38:56;;;;;;;5.32;1.23;;;;;;;7.69;93.23;99605.59;4996830;28;20142;-54
2020/12/24 06:41:26;;;;;;;11.20;2.33;;;;;;;7.70;92.60;99602.03;5003965;28;20622;-57
2020/12/24 06:43:53;;;;;;;4.38;1.02;;;;;;;7.63;92.34;99604.22;5000532;28;20550;-53
2020/12/24 06:46:20;;;;;;;6.63;1.48;;;;;;;7.54;92.16;99604.78;5004476;28;20845;-54
2020/12/24 06:49:27;;;;;;;4.40;1.30;;;;;;;7.46;92.71;99614.91;4999478;28;20447;-53
2020/12/24 06:51:54;;;;;;;4.88;1.65;;;;;;;7.46;92.11;99614.91;4966673;28;20058;-55
2020/12/24 06:54:25;;;;;;;5.78;1.08;;;;;;;7.40;92.46;99618.75;4997000;28;20054;-53
2020/12/24 06:57:22;;;;;;;5.10;1.13;;;;;;;7.36;91.97;99625.09;4998002;28;20062;-53
2020/12/24 07:00:29;;;;;;;10.45;1.33;;;;;;;7.40;91.34;99616.13;4993170;28;20431;-57
2020/12/24 07:03:39;;;;;;;5.50;1.13;;;;;;;7.31;92.30;99624.53;4998412;28;20056;-55
2020/12/24 07:06:06;;;;;;;8.65;1.65;;;;;;;7.30;91.15;99617.63;4993915;28;20562;-56
2020/12/24 07:08:32;;;;;;;5.43;1.10;;;;;;;7.20;91.37;99612.09;5002882;28;20440;-58
2020/12/24 07:11:01;;;;;;;4.65;1.50;;;;;;;7.20;91.43;99626.97;5005558;28;20096;-58
2020/12/24 07:13:39;;;;;;;3.22;1.40;;;;;;;7.31;90.91;99627.16;4977793;28;20108;-53
2020/12/24 07:16:08;;;;;;;8.82;1.40;;;;;;;7.22;90.17;99618.09;5009648;28;20064;-57
2020/12/24 07:18:36;;;;;;;10.52;1.55;;;;;;;7.21;88.70;99629.50;5003899;28;20438;-52
2020/12/24 07:21:04;;;;;;;6.55;1.15;;;;;;;7.08;89.01;99615.47;5009981;28;20302;-54
2020/12/24 07:23:41;;;;;;;7.70;1.40;;;;;;;7.08;88.29;99623.34;5001922;28;20058;-55
2020/12/24 07:26:10;;;;;;;14.80;1.77;;;;;;;7.09;88.68;99618.00;5002243;28;20095;-54
2020/12/24 07:28:41;;;;;;;10.02;1.70;;;;;;;7.05;87.84;99615.66;5000823;28;20046;-53
2020/12/24 07:31:09;;;;;;;5.30;1.25;;;;;;;6.99;87.92;99627.34;5004405;28;20449;-50
2020/12/24 07:33:44;;;;;;;5.95;1.48;;;;;;;6.95;88.46;99618.00;5003753;28;20072;-56
2020/12/24 07:36:11;;;;;;;9.07;1.73;;;;;;;6.92;88.69;99633.03;5009170;28;20058;-53
2020/12/24 07:38:38;;;;;;;10.38;1.70;;;;;;;6.84;88.92;99629.09;5001810;28;20054;-56
2020/12/24 07:41:05;;;;;;;8.93;1.40;;;;;;;6.74;90.15;99627.94;5006136;28;20061;-56
2020/12/24 07:43:31;;;;;;;7.75;1.70;;;;;;;6.70;90.28;99626.44;5004934;28;20054;-56
2020/12/24 07:46:06;;;;;;;7.78;1.35;;;;;;;6.78;90.14;99633.84;5007286;28;20053;-57
2020/12/24 07:48:33;;;;;;;6.80;1.83;;;;;;;6.68;90.12;99628.31;4996376;28;20077;-58
2020/12/24 07:51:09;;;;;;;8.40;1.50;;;;;;;6.72;89.58;99624.59;5008260;28;20077;-51
2020/12/24 07:53:35;;;;;;;;;;;;;;;6.75;89.90;99628.78;5005624;28;20049;-51
2020/12/24 07:56:06;;;;;;;8.63;1.35;;;;;;;6.75;89.31;99621.78;4997335;28;19921;-57
2020/12/24 07:58:34;;;;;;;7.88;1.52;;;;;;;6.84;89.58;99621.25;4989802;28;20042;-56
2020/12/24 08:01:03;;;;;;;4.45;1.27;;;;;;;6.80;89.48;99625.00;5008241;28;20075;-54
2020/12/24 08:03:31;;;;;;;3.83;1.20;;;;;;;6.90;88.14;99625.28;4987378;28;20069;-57
2020/12/24 08:06:02;;;;;;;10.02;1.80;;;;;;;7.06;88.17;99622.56;5000562;23;20061;-62
2020/12/24 08:08:35;;;;;;;8.63;1.48;;;;;;;7.08;87.06;99626.78;4994502;28;20058;-63
2020/12/24 08:11:07;;;;;;;7.53;1.92;;;;;;;7.39;86.46;99626.69;5019026;28;20528;-61
2020/12/24 08:13:33;;;;;;;6.68;1.30;;;;;;;7.47;84.76;99630.50;5021354;28;20057;-63
2020/12/24 08:16:00;;;;;;;6.80;1.48;;;;;;;7.43;85.39;99628.16;5014487;28;20062;-64
2020/12/24 08:18:33;;;;;;;6.43;1.40;;;;;;;7.48;85.02;99613.88;5010579;28;20676;-63
2020/12/24 08:21:18;;;;;;;5.32;1.30;;;;;;;7.52;84.33;99623.22;5006630;28;20049;-63
2020/12/24 08:23:49;;;;;;;5.32;1.23;;;;;;;8.08;81.94;99620.56;5004228;28;20053;-63
2020/12/24 08:26:16;;;;;;;9.60;2.25;;;;;;;8.25;81.38;99624.72;4990740;28;20073;-63
2020/12/24 08:28:57;;;;;;;5.68;1.50;;;;;;;9.08;77.96;99617.41;4990636;28;20057;-63
2020/12/24 08:31:25;;;;;;;6.22;1.50;;;;;;;9.60;74.54;99617.25;5007899;28;20473;-63
2020/12/24 08:33:53;;;;;;;8.23;1.92;;;;;;;8.52;77.93;99622.09;5011510;28;20053;-62
2020/12/24 08:36:27;;;;;;;10.82;1.42;;;;;;;7.84;82.18;99622.97;5016134;28;20065;-61
2020/12/24 08:39:07;;;;;;;4.93;1.20;;;;;;;7.72;83.61;99623.75;5003330;28;20078;-59
2020/12/24 08:41:36;;;;;;;5.45;1.95;;;;;;;7.25;85.74;99625.78;5008250;28;20054;-59
2020/12/24 08:44:04;;;;;;;9.40;1.73;;;;;;;7.07;86.68;99626.88;5010086;28;20049;-64
2020/12/24 08:46:31;;;;;;;10.20;1.67;;;;;;;7.19;87.26;99617.44;5010972;28;20068;-61
2020/12/24 08:49:18;;;;;;;6.28;1.30;;;;;;;7.00;87.95;99609.88;5010210;28;20723;-61
2020/12/24 08:51:44;;;;;;;7.15;2.15;;;;;;;6.80;88.26;99616.31;5006512;28;20104;-61
2020/12/24 08:54:11;;;;;;;12.25;1.35;;;;;;;6.93;88.77;99613.78;5005955;28;20054;-60
2020/12/24 08:56:38;;;;;;;7.35;1.63;;;;;;;6.85;89.53;99612.47;5007419;28;20054;-63
2020/12/24 08:59:09;;;;;;;10.52;1.27;;;;;;;6.93;89.09;99604.13;4985946;28;20049;-63
2020/12/24 09:01:41;;;;;;;6.32;1.20;;;;;;;6.81;89.12;99608.34;5008944;28;20077;-64
2020/12/24 09:04:15;;;;;;;9.90;1.20;;;;;;;6.91;88.79;99618.25;5009181;28;20046;-63
2020/12/24 09:06:45;;;;;;;11.13;1.60;;;;;;;6.81;88.97;99612.75;5007008;28;20544;-63
2020/12/24 09:09:22;;;;;;;10.13;1.38;;;;;;;6.74;89.21;99612.25;5008987;28;20515;-63
2020/12/24 09:11:50;;;;;;;10.18;1.42;;;;;;;6.71;88.58;99616.81;5007880;28;20068;-62
2020/12/24 09:14:22;;;;;;;9.70;2.38;;;;;;;6.88;87.84;99605.34;5009383;28;20133;-61
2020/12/24 09:16:55;;;;;;;8.18;1.77;;;;;;;6.87;87.78;99596.66;5006658;28;20072;-63
2020/12/24 09:19:22;;;;;;;5.40;1.30;;;;;;;6.99;86.79;99608.19;4990384;28;20046;-62
2020/12/24 09:21:56;;;;;;;11.63;1.58;;;;;;;7.09;85.83;99602.28;5007616;28;20061;-62
2020/12/24 09:24:24;;;;;;;10.88;2.03;;;;;;;7.14;85.41;99603.78;4988921;28;20585;-64
2020/12/24 09:26:53;;;;;;;17.75;2.35;;;;;;;7.33;85.48;99609.56;5009543;28;20058;-61
2020/12/24 09:29:21;;;;;;;8.27;1.55;;;;;;;7.41;85.52;99612.56;5007918;28;20054;-62
2020/12/24 09:31:52;;;;;;;8.02;1.70;;;;;;;7.54;83.95;99607.41;5008085;28;20177;-59
2020/12/24 09:34:19;;;;;;;6.63;1.33;;;;;;;7.44;83.63;99601.91;4990226;28;20422;-61
2020/12/24 09:36:47;;;;;;;10.80;1.73;;;;;;;7.69;82.61;99609.06;5012541;28;20130;-62
2020/12/24 09:39:14;;;;;;;7.78;1.45;;;;;;;7.68;82.06;99603.91;5007435;28;20333;-61
2020/12/24 09:41:45;;;;;;;10.07;2.40;;;;;;;7.79;81.72;99598.81;4997758;28;20084;-62
2020/12/24 09:44:12;;;;;;;12.15;1.50;;;;;;;7.77;81.93;99593.69;4990043;28;20257;-63
2020/12/24 09:46:39;;;;;;;9.50;1.52;;;;;;;7.73;81.85;99607.09;5018320;28;20144;-62
2020/12/24 09:49:06;;;;;;;7.50;1.65;;;;;;;7.53;82.20;99603.94;5004468;28;20400;-64
2020/12/24 09:51:35;;;;;;;8.80;1.60;;;;;;;7.57;82.26;99597.59;5011886;28;20048;-59
2020/12/24 09:54:03;;;;;;;9.57;1.75;;;;;;;7.46;82.81;99600.03;5008477;28;20046;-62
2020/12/24 09:56:30;;;;;;;6.80;1.70;;;;;;;7.50;82.49;99590.19;5011778;28;20553;-63
2020/12/24 09:58:58;;;;;;;8.65;1.40;;;;;;;7.53;82.54;99590.84;5007761;28;20050;-61
2020/12/24 10:01:25;;;;;;;7.13;1.50;;;;;;;7.47;83.00;99588.59;5011278;28;20109;-64
2020/12/24 10:03:51;;;;;;;7.30;1.27;;;;;;;7.47;82.25;99585.97;4992305;28;20058;-62
2020/12/24 10:06:18;;;;;;;5.78;1.38;;;;;;;7.56;82.61;99582.78;4997459;28;20943;-62
2020/12/24 10:08:45;;;;;;;3.97;1.33;;;;;;;7.75;81.46;99584.25;5010428;28;20070;-60
2020/12/24 10:11:13;;;;;;;9.02;1.98;;;;;;;7.93;80.12;99577.00;5001295;28;20125;-61
2020/12/24 10:13:39;;;;;;;8.63;1.63;;;;;;;7.81;80.44;99579.47;5010169;28;20056;-61
2020/12/24 10:16:06;;;;;;;10.40;1.48;;;;;;;7.87;80.72;99578.22;5008152;28;20061;-60
2020/12/24 10:18:33;;;;;;;12.52;1.83;;;;;;;7.71;80.87;99573.13;5008808;28;20053;-64
2020/12/24 10:21:00;;;;;;;6.65;1.55;;;;;;;7.67;82.58;99576.88;5014882;28;20433;-61
2020/12/24 10:23:27;;;;;;;10.63;1.50;;;;;;;7.60;80.85;99573.81;5006679;28;20050;-61
2020/12/24 10:25:53;;;;;;;6.65;1.42;;;;;;;7.77;80.97;99569.28;5011625;28;20057;-63
2020/12/24 10:28:20;;;;;;;11.48;1.92;;;;;;;7.72;81.39;99561.72;5003623;28;21160;-62
2020/12/24 10:30:48;;;;;;;5.15;1.50;;;;;;;7.69;81.68;99564.50;5010578;28;20073;-63
2020/12/24 10:33:14;;;;;;;6.68;1.45;;;;;;;7.71;81.22;99560.03;5010406;28;20060;-62
2020/12/24 10:35:43;;;;;;;8.68;1.55;;;;;;;7.55;81.39;99560.16;5011885;28;20174;-61
2020/12/24 10:38:10;;;;;;;5.78;1.38;;;;;;;7.80;81.08;99554.22;5012121;28;20314;-62
2020/12/24 10:40:36;;;;;;;12.93;1.27;;;;;;;7.64;81.38;99550.88;5020176;28;20045;-62
2020/12/24 10:43:03;;;;;;;8.57;1.67;;;;;;;7.73;81.98;99545.03;5013486;28;20054;-62
2020/12/24 10:45:30;;;;;;;13.27;2.55;;;;;;;7.63;82.81;99550.97;5019451;28;20081;-62
2020/12/24 10:47:57;;;;;;;10.25;1.38;;;;;;;7.63;82.23;99553.59;5009303;28;20052;-61
2020/12/24 10:50:24;;;;;;;7.57;1.38;;;;;;;7.51;83.10;99545.56;5015214;28;20041;-62
2020/12/24 10:52:50;;;;;;;15.15;2.60;;;;;;;7.40;83.76;99547.22;5010464;28;20046;-64
2020/12/24 10:55:17;;;;;;;10.88;2.88;;;;;;;7.36;83.23;99546.56;5017749;28;20064;-63
2020/12/24 10:57:45;;;;;;;5.63;1.75;;;;;;;7.47;83.66;99545.88;5012775;28;20062;-63
2020/12/24 11:00:12;;;;;;;7.90;1.55;;;;;;;7.53;82.80;99541.09;5008826;28;20078;-63
2020/12/24 11:02:39;;;;;;;5.22;1.50;;;;;;;7.76;83.54;99537.00;5011182;28;20522;-59
2020/12/24 11:05:05;;;;;;;26.95;1.55;;;;;;;7.56;83.34;99547.91;5013980;28;20073;-64
2020/12/24 11:07:33;;;;;;;4.30;1.33;;;;;;;7.32;85.39;99552.91;5008422;28;20093;-63
2020/12/24 11:10:00;;;;;;;6.03;1.13;;;;;;;7.00;87.87;99536.59;4993003;28;20042;-63
2020/12/24 11:12:27;;;;;;;3.55;1.08;;;;;;;6.92;87.10;99541.44;5013116;28;20052;-62
2020/12/24 11:14:54;;;;;;;6.60;1.15;;;;;;;6.85;87.04;99539.22;5012906;28;20096;-63
2020/12/24 11:17:21;;;;;;;2.35;0.82;;;;;;;6.80;88.05;99541.28;5011585;28;20072;-61
2020/12/24 11:19:47;;;;;;;7.38;1.60;;;;;;;6.90;87.38;99543.34;5005221;28;20454;-61
2020/12/24 11:22:14;;;;;;;5.10;0.90;;;;;;;6.79;87.92;99542.19;5008911;28;20060;-63
2020/12/24 11:24:41;;;;;;;3.97;0.88;;;;;;;6.72;88.48;99537.44;5009339;28;20064;-61
2020/12/24 11:27:08;;;;;;;3.20;1.00;;;;;;;6.72;88.71;99550.53;5011017;28;20054;-59
2020/12/24 11:29:34;;;;;;;3.58;1.25;;;;;;;6.74;88.37;99540.78;4987368;28;20081;-62
2020/12/24 11:32:01;;;;;;;4.68;1.00;;;;;;;6.74;87.75;99551.25;5010111;28;20419;-61
2020/12/24 11:34:31;;;;;;;3.10;0.85;;;;;;;6.47;86.95;99535.44;5011614;28;20410;-59
2020/12/24 11:36:58;;;;;;;5.15;0.70;;;;;;;6.00;86.05;99547.75;5015505;28;20050;-63
2020/12/24 11:39:25;;;;;;;1.55;0.40;;;;;;;6.01;85.38;99541.59;5012242;28;20049;-62
2020/12/24 11:41:54;;;;;;;4.78;0.70;;;;;;;5.89;86.66;99547.47;5016271;28;20050;-62
2020/12/24 11:44:20;;;;;;;1.38;0.60;;;;;;;5.71;87.45;99541.50;5009074;28;20553;-61